Time;durP1;ratioP1;P1;durP2;ratioP2;P2;SDS_P1;SDS_P2;PMS_P1;PMS_P2;Temp;Humidity;BMP_temperature;BMP_pressure;BME280_temperature;BME280_humidity;BME280_pressure;Samples;Min_cycle;Max_cycle;Signal;HPM_P1;HPM_P2
2022/05/19 00:01:59;;;;;;;36.15;30.70;;;17.10;99.90;;;;;;5093415;28;20037;-78
2022/05/19 00:04:25;;;;;;;43.50;34.47;;;17.00;99.90;;;;;;5093944;28;20032;-78
2022/05/19 00:06:51;;;;;;;47.75;34.83;;;17.10;99.90;;;;;;5093133;28;20039;-78
2022/05/19 00:09:18;;;;;;;41.65;32.25;;;17.10;99.90;;;;;;5094647;28;20032;-78
2022/05/19 00:11:45;;;;;;;42.38;34.42;;;17.10;99.90;;;;;;5092838;28;20032;-78
2022/05/19 00:14:11;;;;;;;41.42;34.30;;;17.10;99.90;;;;;;5094532;28;20032;-78
2022/05/19 00:16:37;;;;;;;44.40;36.47;;;17.20;99.90;;;;;;5055094;28;20040;-78
2022/05/19 00:19:03;;;;;;;44.00;37.03;;;17.20;99.90;;;;;;5093860;28;20376;-78
2022/05/19 00:21:28;;;;;;;42.30;37.00;;;17.10;99.90;;;;;;5073685;28;20032;-78
2022/05/19 00:23:54;;;;;;;43.97;39.30;;;17.20;99.90;;;;;;5074743;28;20105;-78
2022/05/19 00:26:20;;;;;;;50.78;41.42;;;17.10;99.90;;;;;;5089518;28;20066;-78
2022/05/19 00:28:46;;;;;;;48.65;40.58;;;17.10;99.90;;;;;;5096386;28;20036;-78
2022/05/19 00:31:12;;;;;;;50.33;40.65;;;17.10;99.90;;;;;;5095300;28;20402;-78
2022/05/19 00:33:38;;;;;;;49.30;42.70;;;17.00;99.90;;;;;;5079896;28;20036;-78
2022/05/19 00:36:13;;;;;;;49.35;38.50;;;17.00;99.90;;;;;;5074921;28;20065;-78
2022/05/19 00:38:38;;;;;;;52.30;41.42;;;17.00;99.90;;;;;;5063645;28;20424;-78
2022/05/19 00:41:05;;;;;;;49.28;38.67;;;16.90;99.90;;;;;;5077823;28;20090;-78
2022/05/19 00:43:37;;;;;;;44.53;37.25;;;17.00;99.90;;;;;;5094135;28;20498;-78
2022/05/19 00:46:14;;;;;;;46.97;39.78;;;17.00;99.90;;;;;;5097220;28;20074;-78
2022/05/19 00:48:57;;;;;;;48.30;38.72;;;17.00;99.90;;;;;;5091327;28;20043;-78
2022/05/19 00:51:35;;;;;;;48.70;40.08;;;17.10;99.90;;;;;;5077299;28;20037;-78
2022/05/19 00:54:03;;;;;;;46.95;41.10;;;17.10;99.90;;;;;;5079476;28;20044;-78
2022/05/19 00:56:43;;;;;;;47.20;40.78;;;17.10;99.90;;;;;;5099506;28;20040;-78
2022/05/19 00:59:12;;;;;;;57.33;45.17;;;17.00;99.90;;;;;;5075154;28;20296;-78
2022/05/19 01:01:44;;;;;;;51.72;45.05;;;16.90;99.90;;;;;;5079090;28;20043;-78
2022/05/19 01:04:25;;;;;;;54.97;45.47;;;16.80;99.90;;;;;;5094225;28;20043;-78
2022/05/19 01:06:55;;;;;;;60.20;47.30;;;16.70;99.90;;;;;;5078666;28;20047;-79
2022/05/19 01:09:21;;;;;;;51.95;44.78;;;16.70;99.90;;;;;;5094347;28;20481;-78
2022/05/19 01:11:52;;;;;;;52.03;45.75;;;16.60;99.90;;;;;;5075056;28;20047;-79
2022/05/19 01:14:17;;;;;;;61.30;46.35;;;16.60;99.90;;;;;;5060780;28;20036;-79
2022/05/19 01:16:43;;;;;;;57.30;49.38;;;16.50;99.90;;;;;;5075742;28;20095;-79
2022/05/19 01:19:22;;;;;;;61.67;49.83;;;16.50;99.90;;;;;;5091257;28;20046;-79
2022/05/19 01:21:49;;;;;;;63.35;47.70;;;16.50;99.90;;;;;;5087453;28;20107;-78
2022/05/19 01:24:31;;;;;;;59.22;49.78;;;16.50;99.90;;;;;;5059666;28;20069;-78
2022/05/19 01:26:57;;;;;;;65.90;53.08;;;16.40;99.90;;;;;;5090682;28;20042;-78
2022/05/19 01:29:26;;;;;;;64.60;51.25;;;16.40;99.90;;;;;;5074502;28;20044;-79
2022/05/19 01:32:01;;;;;;;60.08;50.33;;;16.40;99.90;;;;;;5074262;28;20043;-79
2022/05/19 01:34:30;;;;;;;69.05;51.97;;;16.40;99.90;;;;;;5076934;28;20671;-79
2022/05/19 01:36:56;;;;;;;61.92;50.92;;;16.30;99.90;;;;;;5090519;28;20028;-79
2022/05/19 01:39:25;;;;;;;66.28;53.78;;;16.30;99.90;;;;;;5092049;28;20063;-79
2022/05/19 01:41:57;;;;;;;68.38;53.50;;;16.30;99.90;;;;;;5095281;28;20036;-79
2022/05/19 01:44:48;;;;;;;64.38;52.75;;;16.30;99.90;;;;;;5063052;28;20074;-79
2022/05/19 01:47:23;;;;;;;61.58;53.00;;;16.20;99.90;;;;;;5066409;28;20052;-79
2022/05/19 01:49:56;;;;;;;71.22;53.38;;;16.20;99.90;;;;;;5078322;28;20036;-79
2022/05/19 01:52:33;;;;;;;69.60;54.88;;;16.10;99.90;;;;;;5077845;28;20276;-79
2022/05/19 01:55:09;;;;;;;63.17;51.08;;;16.10;99.90;;;;;;5093881;28;20883;-79
2022/05/19 01:57:48;;;;;;;66.55;51.22;;;16.10;99.90;;;;;;5072190;28;20105;-79
2022/05/19 02:00:18;;;;;;;60.45;50.30;;;16.20;99.90;;;;;;5076979;28;20032;-79
2022/05/19 02:02:56;;;;;;;64.35;53.72;;;16.10;99.90;;;;;;5095993;28;20032;-79
2022/05/19 02:05:24;;;;;;;59.95;49.50;;;16.10;99.90;;;;;;5094628;28;20051;-79
2022/05/19 02:07:54;;;;;;;62.45;51.85;;;16.10;99.90;;;;;;5094497;28;20462;-79
2022/05/19 02:10:27;;;;;;;60.58;50.13;;;16.10;99.90;;;;;;5095034;28;20028;-79
2022/05/19 02:12:55;;;;;;;69.38;50.42;;;16.00;99.90;;;;;;5078426;28;20035;-79
2022/05/19 02:15:24;;;;;;;64.63;53.03;;;16.10;99.90;;;;;;5073830;28;20046;-79
2022/05/19 02:17:52;;;;;;;62.63;49.13;;;16.10;99.90;;;;;;5093846;28;20040;-79
2022/05/19 02:20:22;;;;;;;57.78;46.13;;;16.00;99.90;;;;;;5096521;28;20039;-79
2022/05/19 02:22:48;;;;;;;64.20;50.47;;;15.90;99.90;;;;;;5080530;28;20110;-79
2022/05/19 02:25:29;;;;;;;61.88;50.97;;;15.80;99.90;;;;;;5062883;28;20072;-79
2022/05/19 02:28:18;;;;;;;64.25;51.05;;;15.70;99.90;;;;;;5093069;28;20543;-79
2022/05/19 02:30:44;;;;;;;61.85;50.75;;;15.70;99.90;;;;;;5061281;28;20107;-79
2022/05/19 02:33:15;;;;;;;62.40;52.08;;;15.60;99.90;;;;;;5078116;28;20039;-79
2022/05/19 02:35:41;;;;;;;60.22;48.55;;;15.70;99.90;;;;;;5092885;28;20066;-79
2022/05/19 02:38:06;;;;;;;72.25;55.67;;;15.60;99.90;;;;;;5062271;28;20449;-79
2022/05/19 02:40:34;;;;;;;68.07;54.05;;;15.70;99.90;;;;;;5078680;28;20047;-79
2022/05/19 02:43:01;;;;;;;74.43;55.13;;;15.60;99.90;;;;;;5096562;28;20580;-79
2022/05/19 02:45:28;;;;;;;67.22;53.03;;;15.60;99.90;;;;;;5095874;28;20036;-79
2022/05/19 02:47:54;;;;;;;62.10;52.13;;;15.60;99.90;;;;;;5076716;28;20081;-79
2022/05/19 02:50:20;;;;;;;69.40;54.15;;;15.70;99.90;;;;;;5077293;28;20040;-79
2022/05/19 02:52:47;;;;;;;70.88;55.90;;;15.70;99.90;;;;;;5077052;28;20345;-79
2022/05/19 02:55:13;;;;;;;69.25;53.22;;;15.70;99.90;;;;;;5060855;28;20445;-79
2022/05/19 02:57:39;;;;;;;71.20;54.97;;;15.70;99.90;;;;;;5077008;28;20086;-79
2022/05/19 03:00:12;;;;;;;71.07;54.45;;;15.80;99.90;;;;;;5075561;28;20124;-79
2022/05/19 03:02:39;;;;;;;70.55;53.85;;;15.80;99.90;;;;;;5076921;28;20071;-79
2022/05/19 03:05:05;;;;;;;69.50;54.40;;;15.80;99.90;;;;;;5057432;28;20038;-80
2022/05/19 03:07:31;;;;;;;69.43;56.42;;;15.80;99.90;;;;;;5076397;28;20090;-80
2022/05/19 03:09:56;;;;;;;65.80;54.22;;;15.80;99.90;;;;;;5095481;28;20502;-81
2022/05/19 03:12:22;;;;;;;67.53;53.78;;;15.80;99.90;;;;;;5090676;28;20102;-80
2022/05/19 03:14:48;;;;;;;74.13;58.70;;;15.90;99.90;;;;;;5072505;28;20135;-80
2022/05/19 03:17:13;;;;;;;75.47;57.28;;;15.90;99.90;;;;;;5075567;28;20397;-79
2022/05/19 03:19:39;;;;;;;69.07;53.47;;;15.90;99.90;;;;;;5074487;28;20036;-80
2022/05/19 03:22:06;;;;;;;69.43;53.83;;;15.90;99.90;;;;;;5073872;28;20046;-80
2022/05/19 03:24:32;;;;;;;69.97;58.28;;;15.90;99.90;;;;;;5058188;28;20047;-79
2022/05/19 03:26:58;;;;;;;70.20;55.58;;;15.80;99.90;;;;;;5074112;28;20086;-79
2022/05/19 03:29:23;;;;;;;73.03;57.05;;;15.80;99.90;;;;;;5058627;28;20491;-79
2022/05/19 03:31:50;;;;;;;73.38;56.80;;;15.80;99.90;;;;;;5073915;28;20047;-79
2022/05/19 03:34:18;;;;;;;74.00;57.35;;;15.70;99.90;;;;;;5075936;28;20035;-80
2022/05/19 03:36:45;;;;;;;74.25;59.65;;;15.70;99.90;;;;;;5073399;28;20036;-79
2022/05/19 03:39:11;;;;;;;77.85;61.83;;;15.70;99.90;;;;;;5057899;28;20044;-80
2022/05/19 03:41:36;;;;;;;74.60;58.33;;;15.70;99.90;;;;;;5058612;28;20044;-79
2022/05/19 03:44:03;;;;;;;69.93;56.92;;;15.60;99.90;;;;;;5074766;28;20130;-80
2022/05/19 03:46:28;;;;;;;79.30;62.70;;;15.60;99.90;;;;;;5055746;28;20045;-80
2022/05/19 03:48:54;;;;;;;75.10;62.22;;;15.60;99.90;;;;;;5073966;28;20387;-80
2022/05/19 03:51:27;;;;;;;79.68;61.28;;;15.60;99.90;;;;;;5071253;28;20139;-80
2022/05/19 03:53:54;;;;;;;80.68;63.17;;;15.60;99.90;;;;;;5092038;28;20482;-80
2022/05/19 03:56:21;;;;;;;82.65;65.90;;;15.60;99.90;;;;;;5073218;28;20052;-80
2022/05/19 03:58:48;;;;;;;80.60;63.17;;;15.60;99.90;;;;;;5075600;28;20577;-80
2022/05/19 04:01:14;;;;;;;75.22;62.47;;;15.70;99.90;;;;;;5071406;28;20052;-80
2022/05/19 04:03:40;;;;;;;88.35;64.65;;;15.70;99.90;;;;;;5075974;28;20031;-79
2022/05/19 04:06:06;;;;;;;82.20;62.47;;;15.70;99.90;;;;;;5077978;28;20087;-79
2022/05/19 04:08:32;;;;;;;91.40;70.35;;;15.70;99.90;;;;;;5079402;28;20489;-80
2022/05/19 04:10:58;;;;;;;85.97;64.85;;;15.80;99.90;;;;;;5062850;28;20040;-80
2022/05/19 04:13:24;;;;;;;81.43;68.10;;;15.80;99.90;;;;;;5079890;28;20418;-80
2022/05/19 04:15:49;;;;;;;81.85;63.40;;;15.80;99.90;;;;;;5095997;28;20043;-80
2022/05/19 04:18:15;;;;;;;83.40;64.05;;;15.80;99.90;;;;;;5077327;28;20111;-80
2022/05/19 04:20:41;;;;;;;75.50;58.83;;;15.90;99.90;;;;;;5077593;28;20553;-80
2022/05/19 04:23:07;;;;;;;70.65;60.33;;;15.90;99.90;;;;;;5078712;28;20417;-80
2022/05/19 04:25:33;;;;;;;84.85;66.18;;;15.90;99.90;;;;;;5078924;28;20036;-80
2022/05/19 04:28:00;;;;;;;71.75;58.15;;;15.90;99.90;;;;;;5077487;28;20050;-80
2022/05/19 04:30:26;;;;;;;74.03;60.40;;;16.00;99.90;;;;;;5075334;28;20407;-80
2022/05/19 04:32:52;;;;;;;69.20;56.25;;;16.00;99.90;;;;;;5075827;28;20048;-80
2022/05/19 04:35:17;;;;;;;74.43;59.78;;;16.00;99.90;;;;;;5073646;28;20044;-80
2022/05/19 04:37:43;;;;;;;73.60;60.03;;;16.10;99.90;;;;;;5075696;28;20047;-80
2022/05/19 04:40:10;;;;;;;77.07;60.20;;;16.10;99.90;;;;;;5075746;28;20032;-80
2022/05/19 04:42:36;;;;;;;72.38;57.13;;;16.10;99.90;;;;;;5058767;28;20877;-80
2022/05/19 04:45:03;;;;;;;72.88;58.05;;;16.10;99.90;;;;;;5076487;28;20083;-80
2022/05/19 04:47:28;;;;;;;77.60;61.67;;;16.20;99.90;;;;;;5061482;28;20036;-80
2022/05/19 04:49:54;;;;;;;73.63;61.80;;;16.40;99.90;;;;;;5080048;28;20040;-80
2022/05/19 04:52:20;;;;;;;71.80;59.88;;;16.50;99.90;;;;;;5075875;28;20051;-80
2022/05/19 04:54:46;;;;;;;78.53;60.80;;;16.60;99.90;;;;;;5076311;28;20494;-81
2022/05/19 04:57:12;;;;;;;72.07;57.25;;;16.80;99.90;;;;;;5058592;28;20043;-80
2022/05/19 04:59:40;;;;;;;68.78;58.10;;;16.90;99.90;;;;;;5060227;28;20063;-81
2022/05/19 05:02:06;;;;;;;72.55;56.75;;;17.10;99.90;;;;;;5063742;28;20060;-80
2022/05/19 05:04:32;;;;;;;72.60;55.78;;;17.20;99.90;;;;;;5080855;28;20043;-80
2022/05/19 05:06:57;;;;;;;64.22;57.17;;;17.30;99.90;;;;;;5095403;28;20040;-80
2022/05/19 05:09:24;;;;;;;67.15;55.35;;;17.40;99.90;;;;;;5076870;28;20517;-81
2022/05/19 05:11:50;;;;;;;67.72;53.40;;;17.40;99.90;;;;;;5078805;28;20075;-80
2022/05/19 05:14:16;;;;;;;65.28;54.20;;;17.50;99.90;;;;;;5073880;28;20059;-81
2022/05/19 05:16:46;;;;;;;58.83;50.88;;;17.50;99.90;;;;;;5063439;28;20056;-80
2022/05/19 05:19:11;;;;;;;63.28;51.63;;;17.50;99.90;;;;;;5062301;28;20048;-80
2022/05/19 05:21:37;;;;;;;60.50;51.50;;;17.60;99.90;;;;;;5046412;28;20041;-80
2022/05/19 05:24:03;;;;;;;56.22;48.10;;;17.60;99.90;;;;;;5063229;28;20036;-80
2022/05/19 05:26:29;;;;;;;59.95;49.58;;;17.70;99.90;;;;;;5062766;28;20051;-80
2022/05/19 05:28:54;;;;;;;61.35;49.90;;;17.80;99.90;;;;;;5064607;28;20379;-80
2022/05/19 05:31:20;;;;;;;52.42;45.13;;;17.90;99.90;;;;;;5066327;28;20131;-80
2022/05/19 05:33:45;;;;;;;50.60;43.65;;;18.00;99.90;;;;;;5082894;28;20075;-80
2022/05/19 05:36:11;;;;;;;52.35;43.38;;;18.10;99.90;;;;;;5101036;28;20040;-80
2022/05/19 05:38:36;;;;;;;48.92;42.90;;;18.20;99.90;;;;;;5066557;28;20056;-80
2022/05/19 05:41:03;;;;;;;48.85;42.75;;;18.30;99.90;;;;;;5065755;28;20035;-80
2022/05/19 05:43:30;;;;;;;47.90;40.95;;;18.50;99.90;;;;;;5080796;28;20040;-80
2022/05/19 05:46:05;;;;;;;44.72;39.67;;;18.50;99.90;;;;;;5084415;28;20040;-80
2022/05/19 05:48:31;;;;;;;;;;;18.60;99.90;;;;;;5057228;28;20090;-80
2022/05/19 05:50:56;;;;;;;46.47;39.53;;;18.60;99.90;;;;;;5055870;28;19924;-80
2022/05/19 05:53:22;;;;;;;44.22;36.05;;;18.70;99.90;;;;;;5056847;28;20426;-80
2022/05/19 05:55:47;;;;;;;44.22;37.75;;;18.80;99.90;;;;;;5073151;28;20051;-81
2022/05/19 05:58:13;;;;;;;41.67;34.70;;;18.90;99.90;;;;;;5073891;28;20088;-80
2022/05/19 06:00:41;;;;;;;41.25;35.15;;;19.10;99.90;;;;;;5056505;28;20063;-80
2022/05/19 06:03:07;;;;;;;36.42;30.77;;;19.30;99.90;;;;;;5065365;28;20044;-80
2022/05/19 06:05:33;;;;;;;35.67;30.48;;;19.40;99.90;;;;;;5060804;28;20044;-80
2022/05/19 06:07:58;;;;;;;34.17;30.50;;;19.60;99.90;;;;;;5076936;28;20123;-80
2022/05/19 06:10:24;;;;;;;34.55;30.27;;;19.80;99.90;;;;;;5077280;28;20479;-80
2022/05/19 06:12:49;;;;;;;32.40;28.40;;;20.00;99.90;;;;;;5059865;28;20051;-80
2022/05/19 06:15:17;;;;;;;32.67;25.02;;;20.10;99.90;;;;;;5077031;28;20048;-80
2022/05/19 06:17:43;;;;;;;26.35;23.65;;;20.20;99.90;;;;;;5093959;28;20491;-80
2022/05/19 06:20:12;;;;;;;22.73;20.30;;;20.20;99.90;;;;;;5090979;28;20089;-81
2022/05/19 06:22:38;;;;;;;26.00;21.42;;;20.20;99.90;;;;;;5075660;28;20059;-80
2022/05/19 06:25:06;;;;;;;21.67;18.80;;;20.30;99.90;;;;;;5076857;28;20413;-80
2022/05/19 06:27:31;;;;;;;19.90;17.65;;;20.50;99.90;;;;;;5075081;28;20047;-80
2022/05/19 06:29:57;;;;;;;20.17;17.75;;;20.70;99.90;;;;;;5076564;28;20053;-80
2022/05/19 06:32:22;;;;;;;19.27;16.17;;;20.70;99.90;;;;;;5092574;28;20461;-80
2022/05/19 06:34:48;;;;;;;18.58;16.20;;;20.80;99.90;;;;;;5075656;28;20069;-81
2022/05/19 06:37:14;;;;;;;16.92;15.18;;;21.00;99.90;;;;;;5059465;28;20097;-80
2022/05/19 06:39:39;;;;;;;17.13;15.27;;;21.20;99.90;;;;;;5059653;28;20040;-80
2022/05/19 06:42:11;;;;;;;16.40;14.27;;;21.30;99.90;;;;;;5075945;28;20116;-80
2022/05/19 06:44:39;;;;;;;18.42;15.60;;;21.40;99.90;;;;;;5059444;28;20114;-80
2022/05/19 06:47:16;;;;;;;15.23;13.63;;;21.50;99.90;;;;;;5060648;28;20055;-80
2022/05/19 06:49:48;;;;;;;22.38;17.20;;;21.60;99.90;;;;;;5077787;28;20054;-80
2022/05/19 06:52:16;;;;;;;16.38;14.50;;;21.70;99.90;;;;;;5075956;28;20043;-80
2022/05/19 06:54:46;;;;;;;17.65;15.00;;;21.90;99.90;;;;;;5077777;28;20063;-80
2022/05/19 06:57:12;;;;;;;21.00;15.70;;;22.10;99.90;;;;;;5078133;28;20047;-80
2022/05/19 06:59:39;;;;;;;17.55;14.15;;;22.40;99.90;;;;;;5077791;28;20039;-80
2022/05/19 07:02:05;;;;;;;18.23;15.80;;;22.70;99.90;;;;;;5075897;28;20044;-80
2022/05/19 07:04:32;;;;;;;15.60;13.93;;;22.90;99.90;;;;;;5077357;28;20067;-80
2022/05/19 07:06:58;;;;;;;17.45;15.57;;;22.90;99.90;;;;;;5078112;28;20048;-79
2022/05/19 07:09:23;;;;;;;15.93;14.25;;;22.70;99.90;;;;;;5076684;28;20075;-80
2022/05/19 07:11:49;;;;;;;15.43;13.65;;;22.60;99.90;;;;;;5077339;28;20047;-80
2022/05/19 07:14:15;;;;;;;19.80;15.18;;;22.70;99.90;;;;;;5076839;28;20044;-80
2022/05/19 07:16:43;;;;;;;19.48;14.95;;;22.80;99.90;;;;;;5077358;28;20093;-80
2022/05/19 07:21:54;;;;;;;;;;;22.50;99.90;;;;;;5076556;28;20044;-79
2022/05/19 07:24:21;;;;;;;18.15;13.20;;;22.30;99.90;;;;;;5076783;28;19927;-79
2022/05/19 07:26:49;;;;;;;16.00;12.90;;;22.20;99.90;;;;;;5071302;28;20119;-79
2022/05/19 07:29:16;;;;;;;16.55;13.30;;;22.30;99.90;;;;;;5056994;28;20045;-80
2022/05/19 07:31:42;;;;;;;14.50;13.07;;;22.60;99.90;;;;;;5056155;28;20109;-80
2022/05/19 07:34:10;;;;;;;13.70;12.30;;;22.80;99.90;;;;;;5057276;28;20040;-80
2022/05/19 07:36:36;;;;;;;14.00;12.23;;;22.90;99.90;;;;;;5056293;28;20041;-79
2022/05/19 07:39:03;;;;;;;14.10;12.65;;;22.90;99.90;;;;;;5059756;28;20556;-80
2022/05/19 07:41:30;;;;;;;14.93;11.77;;;22.90;99.90;;;;;;5060594;28;20097;-80
2022/05/19 07:43:57;;;;;;;19.80;15.50;;;23.00;99.90;;;;;;5060371;28;20087;-80
2022/05/19 07:46:25;;;;;;;14.68;13.13;;;22.90;99.90;;;;;;5060416;28;20040;-80
2022/05/19 07:48:54;;;;;;;14.55;12.95;;;22.80;99.90;;;;;;5060381;28;20048;-80
2022/05/19 07:51:23;;;;;;;19.67;15.15;;;22.80;99.90;;;;;;5060366;28;20044;-79
2022/05/19 07:53:50;;;;;;;13.98;12.50;;;22.70;99.90;;;;;;5059942;28;20135;-80
2022/05/19 07:56:16;;;;;;;16.25;13.55;;;22.60;99.90;;;;;;5059953;28;20071;-80
2022/05/19 07:58:42;;;;;;;18.83;16.42;;;22.70;99.90;;;;;;5059962;28;20033;-80
2022/05/19 08:01:08;;;;;;;16.90;15.20;;;22.50;99.90;;;;;;5062853;28;20186;-79
2022/05/19 08:03:34;;;;;;;17.27;15.50;;;22.20;99.90;;;;;;5079726;28;20036;-80
2022/05/19 08:06:00;;;;;;;18.98;17.00;;;21.90;99.90;;;;;;5081154;28;20071;-81
2022/05/19 08:08:26;;;;;;;21.02;15.88;;;21.70;99.90;;;;;;5078728;28;20040;-82
2022/05/19 08:10:53;;;;;;;24.67;17.05;;;21.40;99.90;;;;;;5082795;28;20039;-82
2022/05/19 08:16:04;;;;;;;22.15;19.75;;;20.90;99.90;;;;;;5081142;28;20048;-83
2022/05/19 08:18:30;;;;;;;20.23;18.02;;;20.80;99.90;;;;;;5077268;28;20527;-83
2022/05/19 08:20:58;;;;;;;20.48;18.40;;;20.80;99.90;;;;;;5061737;28;20044;-83
2022/05/19 08:23:30;;;;;;;24.33;21.73;;;20.70;99.90;;;;;;5059838;28;20121;-83
2022/05/19 08:25:56;;;;;;;27.92;21.95;;;20.70;99.90;;;;;;5043458;28;20407;-83
2022/05/19 08:28:29;;;;;;;26.55;23.75;;;20.50;99.90;;;;;;5058702;28;20119;-84
2022/05/19 08:31:03;;;;;;;27.75;24.02;;;20.30;99.90;;;;;;5058843;28;20033;-83
2022/05/19 08:33:29;;;;;;;27.02;22.50;;;20.20;99.90;;;;;;5045463;28;20548;-83
2022/05/19 08:35:55;;;;;;;32.97;23.30;;;20.10;99.90;;;;;;5063845;28;20040;-82
2022/05/19 08:38:22;;;;;;;27.23;24.38;;;20.10;99.90;;;;;;5081321;28;20455;-83
2022/05/19 08:40:54;;;;;;;28.45;25.48;;;19.90;99.90;;;;;;5079954;28;20036;-82
2022/05/19 08:43:26;;;;;;;26.35;23.52;;;19.80;99.90;;;;;;5075712;28;20025;-82
2022/05/19 08:45:59;;;;;;;26.17;23.48;;;19.80;99.90;;;;;;5059659;28;20102;-83
2022/05/19 08:48:27;;;;;;;25.65;22.98;;;19.90;99.90;;;;;;5058111;28;20426;-84
2022/05/19 08:51:12;;;;;;;28.10;24.58;;;19.90;99.90;;;;;;5056883;28;20043;-84
2022/05/19 08:53:41;;;;;;;27.87;24.37;;;20.20;99.90;;;;;;5056575;28;20040;-83
2022/05/19 08:56:23;;;;;;;27.38;22.02;;;20.30;99.90;;;;;;5058362;28;20062;-83
2022/05/19 08:59:00;;;;;;;24.58;22.00;;;20.50;99.90;;;;;;5059188;28;20110;-83
2022/05/19 09:01:53;;;;;;;26.58;22.08;;;20.70;99.90;;;;;;5062917;28;20045;-82
2022/05/19 09:04:52;;;;;;;23.77;20.95;;;20.90;99.90;;;;;;5063413;28;20060;-82
2022/05/19 09:10:40;;;;;;;23.50;21.23;;;21.40;99.90;;;;;;5087341;28;20044;-81
2022/05/19 09:13:11;;;;;;;27.10;23.63;;;21.70;99.90;;;;;;5067280;28;20039;-81
2022/05/19 09:15:37;;;;;;;26.23;23.40;;;21.80;99.90;;;;;;5086233;28;20047;-81
2022/05/19 09:18:04;;;;;;;24.73;22.13;;;21.80;99.90;;;;;;5084207;28;20048;-81
2022/05/19 09:20:48;;;;;;;24.75;22.45;;;21.80;99.90;;;;;;5086630;28;20040;-81
2022/05/19 09:23:14;;;;;;;26.05;23.23;;;21.80;99.90;;;;;;5084748;28;20044;-80
2022/05/19 09:25:45;;;;;;;26.67;24.00;;;21.80;99.90;;;;;;5083747;28;20454;-80
2022/05/19 09:28:12;;;;;;;25.90;22.58;;;21.90;99.90;;;;;;5085222;28;20096;-80
2022/05/19 09:30:51;;;;;;;27.58;25.00;;;22.00;99.90;;;;;;5084251;28;20054;-79
2022/05/19 09:33:21;;;;;;;25.98;23.10;;;22.30;99.90;;;;;;5087133;28;20086;-79
2022/05/19 09:35:55;;;;;;;28.73;25.83;;;22.50;99.90;;;;;;5067615;28;20051;-79
2022/05/19 09:38:36;;;;;;;25.75;23.45;;;22.70;99.90;;;;;;5084117;28;20040;-79
2022/05/19 09:41:26;;;;;;;25.40;22.80;;;22.70;99.90;;;;;;5081757;28;20047;-80
2022/05/19 09:43:54;;;;;;;26.73;23.25;;;22.60;99.90;;;;;;5076316;28;20044;-79
2022/05/19 09:46:20;;;;;;;25.02;22.52;;;22.60;99.90;;;;;;5070913;28;20237;-80
2022/05/19 09:49:04;;;;;;;25.73;21.85;;;22.70;99.90;;;;;;5068699;28;20059;-79
2022/05/19 09:51:42;;;;;;;24.60;21.98;;;23.10;99.90;;;;;;5049209;28;20513;-79
2022/05/19 09:54:15;;;;;;;24.95;22.33;;;23.40;99.90;;;;;;5067048;28;20036;-80
2022/05/19 09:57:05;;;;;;;22.15;19.85;;;23.60;99.90;;;;;;5065630;28;20056;-80
2022/05/19 09:59:40;;;;;;;22.58;20.27;;;24.00;99.90;;;;;;5060081;28;20048;-80
2022/05/19 10:02:18;;;;;;;23.73;21.30;;;24.20;99.90;;;;;;5083860;28;20040;-79
2022/05/19 10:04:53;;;;;;;22.38;19.85;;;24.40;99.90;;;;;;5067350;28;20120;-79
2022/05/19 10:07:26;;;;;;;21.42;19.40;;;24.50;99.90;;;;;;5085017;28;20036;-80
2022/05/19 10:09:56;;;;;;;23.88;21.58;;;24.70;99.90;;;;;;5084456;28;20428;-80
2022/05/19 10:12:42;;;;;;;22.67;20.33;;;24.90;99.90;;;;;;5085606;28;20044;-80
2022/05/19 10:15:14;;;;;;;19.92;17.73;;;25.10;99.90;;;;;;5067691;28;20063;-80
2022/05/19 10:17:50;;;;;;;19.92;18.02;;;25.20;99.90;;;;;;5084527;28;20068;-80
2022/05/19 10:20:30;;;;;;;21.23;19.25;;;25.30;99.90;;;;;;5085878;28;20118;-80
2022/05/19 10:23:30;;;;;;;19.80;17.83;;;25.50;99.90;;;;;;5086525;28;20031;-80
2022/05/19 10:26:05;;;;;;;21.02;18.77;;;25.30;99.90;;;;;;5085156;28;20044;-80
2022/05/19 10:32:22;;;;;;;19.10;17.20;;;25.30;99.90;;;;;;5084963;28;20095;-80
2022/05/19 10:35:12;;;;;;;19.80;17.70;;;25.30;99.90;;;;;;5084409;28;20047;-80
2022/05/19 10:37:49;;;;;;;20.08;18.17;;;25.20;99.90;;;;;;5086932;28;20070;-80
2022/05/19 10:40:33;;;;;;;19.77;17.67;;;25.30;99.90;;;;;;5068461;28;20038;-80
2022/05/19 10:43:21;;;;;;;18.23;16.30;;;25.20;99.90;;;;;;5087030;28;20040;-80
2022/05/19 10:45:48;;;;;;;19.88;17.98;;;25.20;99.90;;;;;;5086294;28;20040;-80
2022/05/19 10:48:15;;;;;;;20.35;18.27;;;25.40;99.90;;;;;;5086122;28;20089;-80
2022/05/19 10:50:56;;;;;;;18.95;17.05;;;25.60;99.90;;;;;;5083720;28;20058;-80
2022/05/19 10:53:49;;;;;;;21.00;18.83;;;25.90;99.90;;;;;;5084823;28;20051;-80
2022/05/19 10:56:34;;;;;;;20.88;18.95;;;26.00;99.90;;;;;;5085587;28;20483;-80
2022/05/19 10:59:11;;;;;;;19.52;17.63;;;26.10;99.90;;;;;;5082981;28;20078;-81
2022/05/19 11:02:18;;;;;;;18.15;16.30;;;25.90;99.90;;;;;;5083862;28;20055;-80
2022/05/19 11:04:49;;;;;;;19.23;16.95;;;26.10;99.90;;;;;;5085756;28;20044;-80
2022/05/19 11:07:25;;;;;;;18.48;16.60;;;26.60;99.90;;;;;;5083913;28;20078;-80
2022/05/19 11:10:16;;;;;;;18.98;17.00;;;26.80;99.90;;;;;;5083468;28;20090;-81
2022/05/19 11:12:49;;;;;;;19.40;17.48;;;27.30;99.90;;;;;;5065682;28;20093;-81
2022/05/19 11:15:43;;;;;;;17.88;16.27;;;27.50;99.90;;;;;;5084044;28;20047;-81
2022/05/19 11:18:24;;;;;;;17.98;16.30;;;27.70;99.90;;;;;;5084193;28;20348;-81
2022/05/19 11:21:08;;;;;;;17.42;15.82;;;27.70;99.90;;;;;;5084011;28;20039;-81
2022/05/19 11:23:49;;;;;;;15.85;14.20;;;27.70;99.90;;;;;;5085292;28;20119;-81
2022/05/19 11:26:39;;;;;;;15.93;14.45;;;27.90;99.90;;;;;;5077930;28;20048;-81
2022/05/19 11:29:22;;;;;;;17.27;15.60;;;28.30;99.90;;;;;;5080195;28;20067;-82
2022/05/19 11:31:59;;;;;;;15.07;12.93;;;28.10;97.80;;;;;;5081554;28;20062;-80
2022/05/19 11:34:45;;;;;;;14.18;12.90;;;28.00;96.10;;;;;;5082993;28;20117;-81
2022/05/19 11:37:32;;;;;;;15.98;14.48;;;28.00;95.30;;;;;;5083738;28;20382;-81
2022/05/19 11:40:14;;;;;;;13.00;10.07;;;28.00;96.00;;;;;;5081225;28;20094;-80
2022/05/19 11:42:53;;;;;;;12.48;11.18;;;28.30;94.20;;;;;;5065402;28;20047;-81
2022/05/19 11:45:28;;;;;;;13.15;11.85;;;28.70;92.30;;;;;;5064566;28;20115;-81
2022/05/19 11:56:27;;;;;;;11.57;8.90;;;30.10;85.60;;;;;;5081151;28;20056;-81
2022/05/19 11:58:53;;;;;;;10.88;7.97;;;30.30;82.10;;;;;;5077996;28;20047;-79
2022/05/19 12:01:37;;;;;;;15.57;8.70;;;30.30;80.30;;;;;;5099846;28;20044;-78
2022/05/19 12:04:15;;;;;;;16.92;7.88;;;30.20;80.40;;;;;;5073777;28;20032;-78
2022/05/19 12:06:48;;;;;;;26.48;10.18;;;29.90;78.60;;;;;;5073180;28;20043;-78
2022/05/19 12:09:30;;;;;;;9.10;6.82;;;29.80;77.30;;;;;;5073492;28;20048;-78
2022/05/19 12:12:14;;;;;;;5.20;4.50;;;29.60;77.60;;;;;;5072864;28;20384;-78
2022/05/19 12:14:50;;;;;;;6.45;3.67;;;29.60;78.60;;;;;;5053589;28;20560;-78
2022/05/19 12:21:09;;;;;;;;;;;;;;;;;;;;;
2022/05/19 12:23:57;;;;;;;3.75;2.42;;;29.80;73.40;;;;;;4970641;28;20088;-78
2022/05/19 12:26:28;;;;;;;15.65;4.45;;;29.70;76.00;;;;;;5006302;28;20053;-78
2022/05/19 12:29:23;;;;;;;2.30;2.10;;;29.70;72.80;;;;;;4992523;28;20054;-77
2022/05/19 12:32:03;;;;;;;;;;;29.70;72.30;;;;;;5004152;28;20243;-78
2022/05/19 12:35:02;;;;;;;2.38;1.75;;;29.50;72.80;;;;;;5053617;28;19947;-78
2022/05/19 12:37:34;;;;;;;2.28;1.08;;;29.50;71.60;;;;;;5053157;28;20043;-77
2022/05/19 12:40:55;;;;;;;1.10;0.93;;;29.30;71.30;;;;;;5070121;28;20102;-78
2022/05/19 12:43:24;;;;;;;2.85;0.73;;;29.10;66.80;;;;;;4976617;28;20094;-78
2022/05/19 12:46:35;;;;;;;;;;;;;;;;;;;;;
2022/05/19 12:49:23;;;;;;;1.17;0.70;;;28.40;68.80;;;;;;5052598;28;20045;-78
2022/05/19 12:52:07;;;;;;;1.92;0.95;;;28.10;66.70;;;;;;5053103;28;20032;-77
2022/05/19 12:55:11;;;;;;;;;;;27.90;68.20;;;;;;5053993;28;20083;-78
2022/05/19 12:57:45;;;;;;;2.30;0.95;;;27.50;68.90;;;;;;5036425;28;20398;-78
2022/05/19 13:00:34;;;;;;;1.23;0.60;;;27.30;72.00;;;;;;5052959;28;20036;-77
2022/05/19 13:03:20;;;;;;;3.45;0.88;;;27.30;71.90;;;;;;5036090;28;20137;-78
2022/05/19 13:06:02;;;;;;;;;;;;;;;;;;;;;
2022/05/19 13:08:39;;;;;;;2.85;1.38;;;26.80;72.70;;;;;;5075359;28;20047;-80
2022/05/19 13:11:18;;;;;;;4.20;1.17;;;26.50;71.90;;;;;;5076472;28;20496;-80
2022/05/19 13:13:53;;;;;;;1.70;1.10;;;26.30;72.10;;;;;;5077756;28;20040;-79
2022/05/19 13:16:25;;;;;;;;;;;26.00;73.50;;;;;;5076436;28;20054;-80
2022/05/19 13:18:53;;;;;;;2.55;1.52;;;25.60;77.10;;;;;;5073685;28;19964;-81
2022/05/19 13:21:23;;;;;;;2.55;1.58;;;25.40;79.30;;;;;;5057107;28;20404;-81